Impacts TAF Board INFO
FOR SITUATIONAL AWARENESS. NOT TO BE USED FOR FLIGHT PLANNING PURPOSES.
IDs:

KSFO - San Francisco Intl, CA, US

Issued at 0308 UTC 21 Jan 2018
Updated at 0421 UTC 21 Jan 2018
Potential Impact None Slight Moderate High
Time<<22/05Z 22/06Z 22/07Z 22/08Z 22/09Z 22/10Z 22/11Z 22/12Z 22/13Z 22/14Z 22/15Z 22/16Z 22/17Z
Type PRVL
VIS >6
CIG 22
Cover OVC
FltCat MVFR
WX -RA
WDir 190
WSpd 12
WGst 20

Raw TAF
KSFO 210308Z 2103/2206 28010KT P6SM FEW023 SCT200
  FM210600 28007KT P6SM FEW022 BKN180
  FM211100 24003KT P6SM SCT020 BKN025 BKN120
  FM211600 19003KT P6SM SCT020 BKN030 OVC100
  FM212100 21009KT P6SM VCSH SCT022 SCT035 OVC080
  FM220300 19012G20KT P6SM -RA BKN022 OVC060


METAR Board
Radar Display
Forecast Discussion

FOR SITUATIONAL AWARENESS. NOT TO BE USED FOR FLIGHT PLANNING PURPOSES.